Time;durP1;ratioP1;P1;durP2;ratioP2;P2;SDS_P1;SDS_P2;PMS_P1;PMS_P2;Temp;Humidity;BMP_temperature;BMP_pressure;BME280_temperature;BME280_humidity;BME280_pressure;Samples;Min_cycle;Max_cycle;Signal;HPM_P1;HPM_P2
2022/07/05 00:00:47;;;;;;;9.25;2.78;;;20.80;99.90;;;;;;5092918;28;20028;-73
2022/07/05 00:03:13;;;;;;;11.30;2.95;;;20.80;99.90;;;;;;5091142;28;20016;-74
2022/07/05 00:05:39;;;;;;;8.70;3.13;;;20.80;99.90;;;;;;5090773;28;20113;-73
2022/07/05 00:08:06;;;;;;;12.68;2.88;;;20.80;99.90;;;;;;5086024;28;20024;-74
2022/07/05 00:10:33;;;;;;;9.02;3.17;;;20.80;99.90;;;;;;5081065;28;20073;-73
2022/07/05 00:12:59;;;;;;;11.85;3.70;;;20.80;99.90;;;;;;5084274;28;20451;-73
2022/07/05 00:15:25;;;;;;;15.30;2.70;;;20.70;99.90;;;;;;5093415;28;20017;-72
2022/07/05 00:17:51;;;;;;;9.00;3.40;;;20.80;99.90;;;;;;5086673;28;20035;-73
2022/07/05 00:20:16;;;;;;;13.95;3.45;;;20.80;99.90;;;;;;5089232;28;20020;-73
2022/07/05 00:22:42;;;;;;;11.50;3.58;;;20.70;99.90;;;;;;5087790;28;20504;-73
2022/07/05 00:25:09;;;;;;;16.60;2.80;;;20.70;99.90;;;;;;5091947;28;20024;-73
2022/07/05 00:27:35;;;;;;;6.30;2.90;;;20.70;99.90;;;;;;5090228;28;20025;-72
2022/07/05 00:30:01;;;;;;;10.75;2.95;;;20.70;99.90;;;;;;5094690;28;20017;-73
2022/07/05 00:32:26;;;;;;;12.95;3.17;;;20.70;99.90;;;;;;5094284;28;20081;-73
2022/07/05 00:34:52;;;;;;;13.20;3.67;;;20.70;99.90;;;;;;5087968;28;20029;-73
2022/07/05 00:37:18;;;;;;;8.65;2.50;;;20.70;99.90;;;;;;5079292;28;20365;-73
2022/07/05 00:39:44;;;;;;;7.78;2.50;;;20.60;99.90;;;;;;5079706;28;20527;-73
2022/07/05 00:42:10;;;;;;;9.38;3.50;;;20.60;99.90;;;;;;5083664;28;20110;-73
2022/07/05 00:44:41;;;;;;;12.48;3.33;;;20.60;99.90;;;;;;5082044;28;20064;-73
2022/07/05 00:47:09;;;;;;;12.27;2.80;;;20.60;99.90;;;;;;5086691;28;20116;-73
2022/07/05 00:49:36;;;;;;;12.10;2.78;;;20.60;99.90;;;;;;5085047;28;20083;-73
2022/07/05 00:52:03;;;;;;;15.13;3.08;;;20.50;99.90;;;;;;5087097;28;20462;-72
2022/07/05 00:54:31;;;;;;;11.88;3.28;;;20.50;99.90;;;;;;5088515;28;20021;-73
2022/07/05 00:56:58;;;;;;;10.77;3.40;;;20.50;99.90;;;;;;5092524;28;20039;-73
2022/07/05 00:59:24;;;;;;;7.38;2.50;;;20.50;99.90;;;;;;5097067;28;20063;-73
2022/07/05 01:01:50;;;;;;;7.25;3.05;;;20.50;99.90;;;;;;5092704;28;20497;-73
2022/07/05 01:04:16;;;;;;;13.02;2.97;;;20.50;99.90;;;;;;5081239;28;20063;-73
2022/07/05 01:06:44;;;;;;;6.75;2.50;;;20.40;99.90;;;;;;5096182;28;20042;-72
2022/07/05 01:09:16;;;;;;;8.65;2.72;;;20.40;99.90;;;;;;5083819;28;20074;-73
2022/07/05 01:11:46;;;;;;;16.65;3.17;;;20.40;99.90;;;;;;5079278;28;20016;-73
2022/07/05 01:14:15;;;;;;;10.73;2.40;;;20.40;99.90;;;;;;5088431;28;20056;-73
2022/07/05 01:16:41;;;;;;;9.80;3.28;;;20.40;99.90;;;;;;5105017;28;20055;-72
2022/07/05 01:19:07;;;;;;;17.95;3.78;;;20.40;99.90;;;;;;5080232;28;20032;-73
2022/07/05 01:21:41;;;;;;;14.73;3.35;;;20.40;99.90;;;;;;5085144;28;20035;-73
2022/07/05 01:24:11;;;;;;;10.15;3.13;;;20.40;99.90;;;;;;5083961;28;20052;-73
2022/07/05 01:26:38;;;;;;;8.60;2.50;;;20.40;99.90;;;;;;5088821;28;20111;-73
2022/07/05 01:29:05;;;;;;;10.23;3.22;;;20.40;99.90;;;;;;5086180;28;20024;-74
2022/07/05 01:31:31;;;;;;;7.47;3.08;;;20.40;99.90;;;;;;5095217;28;20024;-73
2022/07/05 01:33:58;;;;;;;10.68;2.97;;;20.30;99.90;;;;;;5090078;28;20019;-73
2022/07/05 01:36:24;;;;;;;7.05;2.85;;;20.30;99.90;;;;;;5095055;28;20024;-73
2022/07/05 01:38:50;;;;;;;8.73;3.45;;;20.30;99.90;;;;;;5093747;28;20631;-73
2022/07/05 01:41:16;;;;;;;13.82;3.78;;;20.30;99.90;;;;;;5087416;28;20120;-73
2022/07/05 01:43:42;;;;;;;12.63;2.78;;;20.30;99.90;;;;;;5082215;28;20023;-73
2022/07/05 01:46:10;;;;;;;13.40;3.42;;;20.30;99.90;;;;;;5082682;28;20488;-73
2022/07/05 01:48:39;;;;;;;9.73;2.90;;;20.30;99.90;;;;;;5086842;28;20069;-73
2022/07/05 01:51:21;;;;;;;10.43;3.03;;;20.30;99.90;;;;;;5083538;28;20045;-73
2022/07/05 01:53:49;;;;;;;11.00;3.33;;;20.30;99.90;;;;;;5089794;28;20027;-73
2022/07/05 01:56:15;;;;;;;12.57;3.08;;;20.20;99.90;;;;;;5086365;28;20493;-73
2022/07/05 01:58:42;;;;;;;11.10;2.88;;;20.20;99.90;;;;;;5100199;28;20039;-73
2022/07/05 02:01:08;;;;;;;12.90;3.40;;;20.20;99.90;;;;;;5096775;28;20119;-73
2022/07/05 02:03:34;;;;;;;4.88;2.45;;;20.20;99.90;;;;;;5091149;28;20113;-73
2022/07/05 02:06:00;;;;;;;10.23;3.70;;;20.20;99.90;;;;;;5091897;28;20116;-73
2022/07/05 02:08:30;;;;;;;8.65;3.72;;;20.20;99.90;;;;;;5082474;28;20102;-73
2022/07/05 02:10:56;;;;;;;10.27;3.53;;;20.20;99.90;;;;;;5082867;28;20389;-72
2022/07/05 02:13:22;;;;;;;9.93;3.15;;;20.20;99.90;;;;;;5088089;28;20043;-73
2022/07/05 02:15:48;;;;;;;13.27;3.38;;;20.20;99.90;;;;;;5099619;28;20093;-73
2022/07/05 02:18:14;;;;;;;8.23;3.30;;;20.20;99.90;;;;;;5089006;28;20114;-73
2022/07/05 02:20:41;;;;;;;9.52;2.67;;;20.20;99.90;;;;;;5084832;28;20060;-73
2022/07/05 02:23:07;;;;;;;12.57;3.38;;;20.20;99.90;;;;;;5086276;28;20038;-73
2022/07/05 02:25:34;;;;;;;18.23;3.15;;;20.20;99.90;;;;;;5088388;28;20020;-73
2022/07/05 02:28:00;;;;;;;11.32;3.00;;;20.20;99.90;;;;;;5095423;28;20392;-73
2022/07/05 02:30:26;;;;;;;14.90;3.05;;;20.20;99.90;;;;;;5092535;28;20099;-73
2022/07/05 02:32:52;;;;;;;11.35;3.60;;;20.10;99.90;;;;;;5099577;28;20040;-73
2022/07/05 02:35:17;;;;;;;8.93;3.35;;;20.10;99.90;;;;;;5096086;28;20020;-73
2022/07/05 02:37:43;;;;;;;15.93;3.50;;;20.10;99.90;;;;;;5091647;28;20515;-72
2022/07/05 02:40:11;;;;;;;7.82;2.72;;;20.10;99.90;;;;;;5093204;28;20028;-72
2022/07/05 02:42:37;;;;;;;7.38;3.13;;;20.00;99.90;;;;;;5081632;28;20074;-72
2022/07/05 02:45:04;;;;;;;17.77;2.53;;;20.10;99.90;;;;;;5081005;28;20415;-72
2022/07/05 02:47:31;;;;;;;6.57;2.85;;;20.10;99.90;;;;;;5088825;28;20095;-73
2022/07/05 02:50:07;;;;;;;8.50;2.97;;;20.00;99.90;;;;;;5091061;28;20389;-72
2022/07/05 02:52:34;;;;;;;8.35;3.10;;;20.00;99.90;;;;;;5088619;28;20053;-72
2022/07/05 02:55:00;;;;;;;8.63;3.17;;;20.00;99.90;;;;;;5087602;28;20025;-72
2022/07/05 02:57:27;;;;;;;10.15;2.72;;;20.00;99.90;;;;;;5092443;28;20052;-71
2022/07/05 02:59:56;;;;;;;9.63;2.95;;;20.00;99.90;;;;;;5091299;28;20020;-72
2022/07/05 03:02:23;;;;;;;9.77;3.03;;;20.00;99.90;;;;;;5095566;28;20024;-72
2022/07/05 03:04:49;;;;;;;9.88;3.15;;;20.00;99.90;;;;;;5095590;28;20067;-72
2022/07/05 03:07:15;;;;;;;8.07;3.10;;;20.00;99.90;;;;;;5096993;28;20095;-72
2022/07/05 03:09:41;;;;;;;8.57;3.42;;;20.00;99.90;;;;;;5099001;28;20412;-72
2022/07/05 03:12:07;;;;;;;11.52;4.15;;;20.00;99.90;;;;;;5094115;28;20028;-71
2022/07/05 03:14:33;;;;;;;10.35;3.33;;;20.00;99.90;;;;;;5094799;28;20031;-72
2022/07/05 03:16:59;;;;;;;6.53;3.10;;;20.00;99.90;;;;;;5095155;28;20052;-72
2022/07/05 03:19:25;;;;;;;9.10;3.33;;;20.00;99.90;;;;;;5087759;28;20016;-71
2022/07/05 03:21:51;;;;;;;10.35;3.97;;;20.00;99.90;;;;;;5090845;28;20402;-72
2022/07/05 03:24:16;;;;;;;9.85;3.60;;;19.90;99.90;;;;;;5093974;28;20484;-71
2022/07/05 03:26:42;;;;;;;9.85;3.10;;;19.90;99.90;;;;;;5095076;28;20077;-73
2022/07/05 03:29:08;;;;;;;10.85;3.85;;;19.90;99.90;;;;;;5091541;28;20012;-72
2022/07/05 03:31:35;;;;;;;8.88;3.25;;;19.90;99.90;;;;;;5097328;28;20032;-73
2022/07/05 03:34:01;;;;;;;12.32;3.95;;;19.90;99.90;;;;;;5096904;28;20494;-72
2022/07/05 03:36:27;;;;;;;8.63;3.90;;;19.90;99.90;;;;;;5098118;28;20038;-72
2022/07/05 03:38:53;;;;;;;8.90;4.15;;;19.90;99.90;;;;;;5077896;28;20048;-72
2022/07/05 03:41:18;;;;;;;9.77;3.67;;;19.90;99.90;;;;;;5086006;28;20058;-72
2022/07/05 03:43:44;;;;;;;8.88;3.47;;;19.80;99.90;;;;;;5086648;28;20103;-72
2022/07/05 03:46:10;;;;;;;11.60;3.63;;;19.80;99.90;;;;;;5082744;28;20020;-71
2022/07/05 03:48:36;;;;;;;9.40;3.72;;;19.80;99.90;;;;;;5085758;28;20534;-72
2022/07/05 03:51:02;;;;;;;10.15;3.45;;;19.80;99.90;;;;;;5085136;28;20044;-72
2022/07/05 03:53:27;;;;;;;9.20;3.80;;;19.80;99.90;;;;;;5085864;28;20037;-72
2022/07/05 03:55:53;;;;;;;7.28;3.60;;;19.80;99.90;;;;;;5090552;28;20032;-72
2022/07/05 03:58:19;;;;;;;11.02;4.13;;;19.80;99.90;;;;;;5089403;28;20111;-72
2022/07/05 04:00:45;;;;;;;13.55;4.72;;;19.80;99.90;;;;;;5094122;28;20019;-72
2022/07/05 04:03:11;;;;;;;9.00;3.72;;;19.80;99.90;;;;;;5092425;28;20012;-72
2022/07/05 04:05:37;;;;;;;10.00;3.85;;;19.80;99.90;;;;;;5094842;28;20020;-72
2022/07/05 04:08:03;;;;;;;14.20;4.82;;;19.80;99.90;;;;;;5095626;28;20425;-73
2022/07/05 04:10:28;;;;;;;17.27;4.57;;;19.70;99.90;;;;;;5088489;28;20100;-72
2022/07/05 04:12:54;;;;;;;7.40;4.35;;;19.70;99.90;;;;;;5079492;28;20024;-72
2022/07/05 04:15:20;;;;;;;12.57;4.32;;;19.70;99.90;;;;;;5085904;28;20044;-72
2022/07/05 04:17:50;;;;;;;7.45;3.42;;;19.70;99.90;;;;;;5087865;28;20058;-72
2022/07/05 04:20:16;;;;;;;10.93;4.35;;;19.70;99.90;;;;;;5081909;28;20048;-72
2022/07/05 04:22:42;;;;;;;7.30;4.03;;;19.70;99.90;;;;;;5085998;28;20032;-72
2022/07/05 04:25:17;;;;;;;9.45;3.88;;;19.70;99.90;;;;;;5086200;28;20017;-72
2022/07/05 04:27:45;;;;;;;11.25;4.85;;;19.70;99.90;;;;;;5089892;28;20056;-72
2022/07/05 04:30:11;;;;;;;8.80;4.53;;;19.70;99.90;;;;;;5089527;28;20495;-72
2022/07/05 04:32:37;;;;;;;7.63;4.35;;;19.70;99.90;;;;;;5091919;28;20028;-73
2022/07/05 04:35:03;;;;;;;11.27;3.50;;;19.70;99.90;;;;;;5093532;28;20032;-73
2022/07/05 04:37:29;;;;;;;7.28;4.13;;;19.70;99.90;;;;;;5093050;28;20024;-73
2022/07/05 04:39:54;;;;;;;18.63;4.47;;;19.70;99.90;;;;;;5094483;28;20035;-73
2022/07/05 04:42:20;;;;;;;12.68;4.22;;;19.70;99.90;;;;;;5095800;28;20479;-72
2022/07/05 04:44:46;;;;;;;10.43;4.55;;;19.70;99.90;;;;;;5086365;28;20046;-73
2022/07/05 04:47:12;;;;;;;11.70;4.55;;;19.70;99.90;;;;;;5079038;28;20451;-73
2022/07/05 04:49:38;;;;;;;16.90;4.65;;;19.70;99.90;;;;;;5085148;28;20493;-72
2022/07/05 04:52:04;;;;;;;17.48;4.55;;;19.70;99.90;;;;;;5095325;28;20056;-73
2022/07/05 04:54:30;;;;;;;10.45;4.72;;;19.70;99.90;;;;;;5093580;28;20024;-73
2022/07/05 04:56:56;;;;;;;7.05;4.35;;;19.70;99.90;;;;;;5094508;28;20031;-73
2022/07/05 04:59:22;;;;;;;9.60;4.80;;;19.80;99.90;;;;;;5093024;28;20036;-73
2022/07/05 05:01:47;;;;;;;9.90;4.97;;;19.80;99.90;;;;;;5088393;28;20028;-72
2022/07/05 05:04:13;;;;;;;13.88;4.55;;;19.80;99.90;;;;;;5089578;28;20019;-73
2022/07/05 05:06:39;;;;;;;11.52;4.20;;;19.80;99.90;;;;;;5092151;28;20087;-73
2022/07/05 05:09:05;;;;;;;8.00;4.47;;;19.80;99.90;;;;;;5093526;28;20020;-73
2022/07/05 05:11:31;;;;;;;16.08;5.10;;;19.80;99.90;;;;;;5090289;28;20024;-73
2022/07/05 05:13:56;;;;;;;15.27;5.57;;;19.70;99.90;;;;;;5095185;28;20047;-72
2022/07/05 05:16:22;;;;;;;14.23;4.53;;;19.70;99.90;;;;;;5095196;28;20020;-73
2022/07/05 05:18:48;;;;;;;10.93;4.38;;;19.70;99.90;;;;;;5086860;28;20029;-73
2022/07/05 05:21:14;;;;;;;13.93;5.13;;;19.70;99.90;;;;;;5078673;28;20024;-72
2022/07/05 05:23:40;;;;;;;15.82;4.55;;;19.70;99.90;;;;;;5084889;28;20396;-72
2022/07/05 05:26:05;;;;;;;9.52;4.90;;;19.70;99.90;;;;;;5086749;28;20028;-72
2022/07/05 05:28:31;;;;;;;8.95;4.00;;;19.70;99.90;;;;;;5081955;28;20090;-73
2022/07/05 05:30:57;;;;;;;7.05;4.22;;;19.70;99.90;;;;;;5084594;28;20028;-73
2022/07/05 05:33:23;;;;;;;8.68;4.60;;;19.70;99.90;;;;;;5084466;28;20024;-74
2022/07/05 05:35:49;;;;;;;12.82;4.85;;;19.70;99.90;;;;;;5089605;28;20026;-72
2022/07/05 05:38:15;;;;;;;9.15;4.60;;;19.70;99.90;;;;;;5090836;28;20028;-73
2022/07/05 05:40:41;;;;;;;12.27;4.68;;;19.70;99.90;;;;;;5091071;28;20024;-73
2022/07/05 05:43:07;;;;;;;14.27;4.88;;;19.80;99.90;;;;;;5094354;28;20434;-72
2022/07/05 05:45:32;;;;;;;12.20;5.45;;;19.90;99.90;;;;;;5092479;28;20077;-73
2022/07/05 05:47:59;;;;;;;8.82;3.88;;;19.90;99.90;;;;;;5096589;28;20028;-73
2022/07/05 05:50:38;;;;;;;9.30;5.18;;;19.90;99.90;;;;;;5079839;28;20072;-73
2022/07/05 05:53:04;;;;;;;17.35;5.32;;;19.90;99.90;;;;;;5076812;28;20035;-73
2022/07/05 05:55:31;;;;;;;6.93;4.10;;;19.90;99.90;;;;;;5083036;28;20031;-73
2022/07/05 05:58:10;;;;;;;10.95;4.78;;;19.90;99.90;;;;;;5084574;28;20026;-73
2022/07/05 06:00:36;;;;;;;13.70;5.25;;;20.00;99.90;;;;;;5093180;28;20039;-72
2022/07/05 06:03:02;;;;;;;10.00;4.32;;;20.00;99.90;;;;;;5094259;28;20016;-73
2022/07/05 06:05:27;;;;;;;17.13;5.05;;;20.10;99.90;;;;;;5092769;28;20036;-73
2022/07/05 06:07:55;;;;;;;12.65;5.13;;;20.10;99.90;;;;;;5090974;28;20023;-73
2022/07/05 06:10:24;;;;;;;16.17;4.70;;;20.20;99.90;;;;;;5091682;28;20024;-72
2022/07/05 06:12:52;;;;;;;9.48;3.72;;;20.30;99.90;;;;;;5086164;28;20017;-73
2022/07/05 06:15:19;;;;;;;9.82;4.28;;;20.30;99.90;;;;;;5086641;28;20024;-74
2022/07/05 06:17:45;;;;;;;8.73;3.80;;;20.30;99.90;;;;;;5087982;28;20052;-75
2022/07/05 06:20:16;;;;;;;11.95;3.72;;;20.30;99.90;;;;;;5092096;28;20096;-75
2022/07/05 06:22:42;;;;;;;9.63;4.05;;;20.40;99.90;;;;;;5086302;28;20027;-75
2022/07/05 06:25:09;;;;;;;14.82;4.45;;;20.50;99.90;;;;;;5088234;28;20028;-75
2022/07/05 06:27:47;;;;;;;10.65;3.97;;;20.60;99.90;;;;;;5091463;28;20633;-75
2022/07/05 06:30:16;;;;;;;10.40;3.95;;;20.60;99.90;;;;;;5093199;28;20024;-75
2022/07/05 06:32:46;;;;;;;10.40;4.28;;;20.60;99.90;;;;;;5096005;28;20361;-75
2022/07/05 06:35:12;;;;;;;10.63;4.35;;;20.60;99.90;;;;;;5098843;28;20080;-75
2022/07/05 06:37:46;;;;;;;8.68;3.80;;;20.70;99.90;;;;;;5095343;28;20032;-76
2022/07/05 06:40:13;;;;;;;14.18;4.72;;;20.70;99.90;;;;;;5089787;28;20028;-75
2022/07/05 06:42:40;;;;;;;15.07;4.20;;;20.70;99.90;;;;;;5088607;28;20021;-75
2022/07/05 06:45:06;;;;;;;14.95;4.65;;;20.70;99.90;;;;;;5079612;28;20027;-75
2022/07/05 06:47:33;;;;;;;12.18;3.58;;;20.80;99.90;;;;;;5079061;28;20040;-75
2022/07/05 06:49:59;;;;;;;11.63;4.15;;;20.70;99.90;;;;;;5092588;28;20031;-74
2022/07/05 06:52:25;;;;;;;18.48;4.28;;;20.80;99.90;;;;;;5097068;28;20049;-77
2022/07/05 06:54:51;;;;;;;15.32;3.60;;;20.90;99.90;;;;;;5095138;28;20535;-77
2022/07/05 06:57:21;;;;;;;8.00;4.03;;;20.90;99.90;;;;;;5097671;28;20028;-77
2022/07/05 06:59:47;;;;;;;9.30;4.22;;;20.90;99.90;;;;;;5098737;28;20026;-76
2022/07/05 07:02:13;;;;;;;13.50;3.97;;;21.00;99.90;;;;;;5098750;28;20104;-76
2022/07/05 07:04:39;;;;;;;7.57;3.60;;;21.00;99.90;;;;;;5096498;28;20021;-75
2022/07/05 07:09:17;;;;;;;12.60;3.78;;;21.10;99.90;;;;;;5097673;28;20031;-75
2022/07/05 07:09:51;;;;;;;10.00;3.80;;;21.10;99.90;;;;;;5092809;28;20372;-76
2022/07/05 07:12:16;;;;;;;6.88;3.67;;;21.20;99.90;;;;;;5095013;28;20028;-76
2022/07/05 07:14:42;;;;;;;12.23;4.32;;;21.30;99.90;;;;;;5094751;28;20027;-76
2022/07/05 07:17:08;;;;;;;10.13;3.85;;;21.40;99.90;;;;;;5095278;28;20392;-75
2022/07/05 07:19:34;;;;;;;13.90;3.60;;;21.50;99.90;;;;;;5096269;28;20020;-76
2022/07/05 07:22:00;;;;;;;14.48;3.67;;;21.60;99.90;;;;;;5092726;28;20387;-76
2022/07/05 07:24:25;;;;;;;10.65;4.00;;;21.60;99.90;;;;;;5089422;28;20024;-75
2022/07/05 07:27:03;;;;;;;10.80;4.18;;;21.60;99.90;;;;;;5089385;28;20388;-76
2022/07/05 07:29:30;;;;;;;10.82;4.55;;;21.70;99.90;;;;;;5079030;28;20028;-75
2022/07/05 07:31:57;;;;;;;11.77;3.45;;;21.80;99.90;;;;;;5079753;28;20518;-76
2022/07/05 07:34:23;;;;;;;7.32;3.10;;;21.80;99.90;;;;;;5086571;28;20052;-77
2022/07/05 07:36:50;;;;;;;8.30;3.55;;;21.80;99.90;;;;;;5088796;28;20025;-77
2022/07/05 07:39:15;;;;;;;10.82;3.45;;;21.80;99.90;;;;;;5087323;28;20028;-77
2022/07/05 07:41:41;;;;;;;7.97;3.55;;;21.80;99.90;;;;;;5083220;28;20383;-77
2022/07/05 07:44:07;;;;;;;9.48;3.50;;;21.90;99.90;;;;;;5088812;28;20046;-76
2022/07/05 07:46:33;;;;;;;7.63;3.58;;;21.90;99.90;;;;;;5084821;28;20150;-76
2022/07/05 07:48:59;;;;;;;11.73;3.70;;;22.00;99.90;;;;;;5090973;28;20047;-77
2022/07/05 07:51:25;;;;;;;9.15;3.42;;;22.10;99.90;;;;;;5091864;28;20055;-75
2022/07/05 07:53:51;;;;;;;7.18;3.60;;;22.10;99.90;;;;;;5094476;28;20041;-76
2022/07/05 07:56:17;;;;;;;10.90;3.40;;;22.20;99.90;;;;;;5092195;28;20024;-76
2022/07/05 07:58:44;;;;;;;9.40;3.38;;;22.20;99.90;;;;;;5085214;28;20031;-75
2022/07/05 08:01:13;;;;;;;9.57;3.92;;;22.30;99.90;;;;;;5074983;28;20032;-76
2022/07/05 08:03:43;;;;;;;9.15;3.55;;;22.30;99.90;;;;;;5090604;28;20156;-79
2022/07/05 08:06:10;;;;;;;10.67;3.03;;;22.50;99.90;;;;;;5092644;28;20024;-77
2022/07/05 08:08:38;;;;;;;6.10;3.33;;;22.60;99.90;;;;;;5095135;28;20024;-77
2022/07/05 08:11:04;;;;;;;5.13;2.92;;;22.70;99.90;;;;;;5085133;28;20016;-77
2022/07/05 08:13:30;;;;;;;9.13;3.50;;;22.80;99.90;;;;;;5092587;28;20025;-77
2022/07/05 08:15:57;;;;;;;6.88;3.85;;;22.90;99.90;;;;;;5088236;28;20027;-78
2022/07/05 08:23:51;;;;;;;10.18;3.80;;;23.20;99.90;;;;;;5095572;28;20088;-78
2022/07/05 08:26:17;;;;;;;6.97;3.10;;;23.20;99.90;;;;;;5090223;28;20013;-78
2022/07/05 08:28:43;;;;;;;6.00;2.45;;;23.20;99.90;;;;;;5078276;28;20025;-77
2022/07/05 08:31:09;;;;;;;9.82;2.60;;;23.30;99.90;;;;;;5081034;28;20048;-77
2022/07/05 08:33:35;;;;;;;6.22;2.70;;;23.40;99.90;;;;;;5078418;28;20109;-77
2022/07/05 08:36:01;;;;;;;7.15;2.58;;;23.30;99.90;;;;;;5087986;28;20050;-77
2022/07/05 08:38:27;;;;;;;10.85;3.42;;;23.50;99.90;;;;;;5083314;28;20484;-77
2022/07/05 08:40:56;;;;;;;9.18;2.60;;;23.70;99.90;;;;;;5095345;28;20023;-77
2022/07/05 08:43:27;;;;;;;8.20;3.30;;;23.80;99.90;;;;;;5086386;28;20021;-79
2022/07/05 08:45:54;;;;;;;11.15;3.13;;;24.10;99.90;;;;;;5083862;28;20024;-78
2022/07/05 08:48:21;;;;;;;8.95;2.58;;;24.10;99.90;;;;;;5090341;28;20024;-77
2022/07/05 08:50:50;;;;;;;7.57;2.20;;;24.00;99.90;;;;;;5095065;28;20113;-77
2022/07/05 08:53:18;;;;;;;8.95;2.03;;;24.00;99.90;;;;;;5090652;28;20090;-76
2022/07/05 08:55:45;;;;;;;7.47;2.47;;;24.00;99.90;;;;;;5093651;28;20384;-77
2022/07/05 08:58:11;;;;;;;8.18;2.70;;;24.00;99.90;;;;;;5080084;28;20025;-79
2022/07/05 09:00:39;;;;;;;6.97;2.67;;;24.00;99.90;;;;;;5079668;28;20044;-79
2022/07/05 09:03:08;;;;;;;6.15;2.15;;;24.00;99.90;;;;;;5088269;28;20020;-77
2022/07/05 09:05:42;;;;;;;6.95;2.35;;;24.00;99.90;;;;;;5095249;28;20023;-76
2022/07/05 09:08:13;;;;;;;5.53;2.45;;;24.00;99.90;;;;;;5096378;28;20012;-78
2022/07/05 09:10:39;;;;;;;;;;;24.20;99.90;;;;;;5093253;28;20113;-76
2022/07/05 09:13:05;;;;;;;8.25;2.83;;;24.20;99.90;;;;;;5095479;28;19911;-76
2022/07/05 09:15:31;;;;;;;8.02;2.33;;;24.40;99.90;;;;;;5093862;28;20024;-79
2022/07/05 09:17:56;;;;;;;6.80;2.63;;;24.70;99.90;;;;;;5096222;28;20376;-78
2022/07/05 09:20:22;;;;;;;3.60;2.20;;;24.60;99.90;;;;;;5096451;28;20016;-77
2022/07/05 09:22:53;;;;;;;9.80;2.22;;;24.80;99.90;;;;;;5093734;28;20508;-77
2022/07/05 09:25:29;;;;;;;8.25;2.30;;;24.90;99.90;;;;;;5096400;28;20020;-78
2022/07/05 09:27:56;;;;;;;3.47;1.83;;;25.00;99.90;;;;;;5090665;28;20027;-79
2022/07/05 09:30:39;;;;;;;5.28;1.98;;;24.90;99.90;;;;;;5084541;28;20111;-77
2022/07/05 09:33:17;;;;;;;5.60;2.28;;;24.80;99.90;;;;;;5086774;28;20547;-78
2022/07/05 09:35:54;;;;;;;4.85;2.00;;;24.80;99.90;;;;;;5076712;28;20031;-77
2022/07/05 09:38:22;;;;;;;7.60;2.08;;;24.80;99.90;;;;;;5094916;28;20031;-77
2022/07/05 09:40:52;;;;;;;6.53;2.60;;;24.90;99.90;;;;;;5096151;28;20026;-78
2022/07/05 09:43:21;;;;;;;;;;;25.10;99.90;;;;;;5095463;28;20044;-80
2022/07/05 09:45:54;;;;;;;7.05;1.95;;;25.10;99.90;;;;;;5093684;28;19908;-81
2022/07/05 09:48:20;;;;;;;9.57;3.08;;;25.10;99.90;;;;;;5095666;28;20020;-79
2022/07/05 09:50:48;;;;;;;3.47;2.03;;;25.20;99.90;;;;;;5081790;28;20102;-81
2022/07/05 09:53:14;;;;;;;9.00;2.80;;;25.30;99.90;;;;;;5082951;28;20039;-79
2022/07/05 09:55:40;;;;;;;5.72;2.30;;;25.30;99.90;;;;;;5094582;28;20020;-80
2022/07/05 09:58:07;;;;;;;6.45;2.25;;;25.30;99.90;;;;;;5095812;28;20016;-79
2022/07/05 10:00:33;;;;;;;9.15;2.58;;;25.30;99.90;;;;;;5095729;28;20072;-79
2022/07/05 10:03:02;;;;;;;6.97;2.05;;;25.40;99.90;;;;;;5095661;28;20017;-82
2022/07/05 10:05:34;;;;;;;6.57;2.13;;;25.50;99.90;;;;;;5099352;28;20032;-81
2022/07/05 10:08:01;;;;;;;9.43;2.53;;;25.60;99.90;;;;;;5085748;28;20515;-78
2022/07/05 10:10:30;;;;;;;9.02;2.28;;;25.50;99.90;;;;;;5081902;28;20115;-80
2022/07/05 10:13:06;;;;;;;9.77;3.05;;;25.50;99.90;;;;;;5080103;28;20572;-79
2022/07/05 10:15:36;;;;;;;10.05;2.10;;;25.60;99.90;;;;;;5097910;28;20058;-80
2022/07/05 10:18:08;;;;;;;6.15;1.90;;;25.80;99.90;;;;;;5096351;28;20028;-81
2022/07/05 10:20:37;;;;;;;8.77;2.30;;;26.00;99.90;;;;;;5097973;28;20077;-80
2022/07/05 10:23:17;;;;;;;6.05;2.88;;;26.20;99.90;;;;;;5098919;28;20432;-80
2022/07/05 10:25:48;;;;;;;4.70;2.10;;;26.50;99.90;;;;;;5099253;28;20016;-78
2022/07/05 10:28:15;;;;;;;2.78;1.83;;;26.50;99.90;;;;;;5098265;28;20024;-76
2022/07/05 10:30:41;;;;;;;6.30;2.30;;;26.30;99.90;;;;;;5086487;28;20051;-79
2022/07/05 10:33:08;;;;;;;5.80;2.45;;;26.30;99.90;;;;;;5081484;28;20023;-76
2022/07/05 10:35:34;;;;;;;7.60;2.17;;;26.30;99.90;;;;;;5089504;28;20476;-78
2022/07/05 10:38:02;;;;;;;10.20;2.65;;;26.30;99.90;;;;;;5092656;28;20108;-79
2022/07/05 10:40:31;;;;;;;5.55;2.53;;;26.20;99.90;;;;;;5095860;28;20146;-79
2022/07/05 10:43:02;;;;;;;6.18;2.53;;;26.20;99.90;;;;;;5095823;28;20023;-76
2022/07/05 10:45:34;;;;;;;5.70;2.30;;;26.10;99.90;;;;;;5092741;28;20345;-77
2022/07/05 10:48:22;;;;;;;4.72;2.17;;;26.20;99.90;;;;;;5097842;28;20035;-79
2022/07/05 10:50:52;;;;;;;9.18;1.88;;;26.40;99.90;;;;;;5086621;28;20063;-78
2022/07/05 10:53:45;;;;;;;4.05;1.70;;;26.50;99.90;;;;;;5097479;28;20392;-80
2022/07/05 10:56:12;;;;;;;4.45;2.00;;;26.50;99.90;;;;;;5087316;28;20016;-80
2022/07/05 10:58:39;;;;;;;4.75;2.25;;;26.40;99.90;;;;;;5095289;28;20021;-79
2022/07/05 11:01:20;;;;;;;5.18;1.80;;;26.40;99.90;;;;;;5088029;28;20028;-77
2022/07/05 11:04:02;;;;;;;7.68;2.40;;;26.40;99.90;;;;;;5093053;28;20039;-78
2022/07/05 11:06:29;;;;;;;8.30;2.15;;;26.70;99.90;;;;;;5083558;28;20028;-78
2022/07/05 11:09:05;;;;;;;3.13;1.55;;;26.80;98.20;;;;;;5082568;28;20028;-78
2022/07/05 11:11:42;;;;;;;4.85;1.63;;;27.10;98.00;;;;;;5094955;28;20020;-79
2022/07/05 11:14:25;;;;;;;3.42;1.85;;;27.10;97.00;;;;;;5085235;28;20032;-78
2022/07/05 11:17:09;;;;;;;3.67;1.65;;;27.10;96.80;;;;;;5088773;28;20043;-78
2022/07/05 11:19:55;;;;;;;5.25;1.95;;;27.20;96.80;;;;;;5091113;28;20196;-81
2022/07/05 11:22:21;;;;;;;5.22;1.55;;;27.40;97.10;;;;;;5093219;28;20181;-78
2022/07/05 11:24:47;;;;;;;1.95;1.08;;;27.50;94.70;;;;;;5086614;28;20562;-77
2022/07/05 11:27:13;;;;;;;5.63;1.90;;;27.50;91.90;;;;;;5097845;28;20012;-80
2022/07/05 11:29:47;;;;;;;7.38;1.67;;;27.40;92.70;;;;;;5098104;28;20026;-78
2022/07/05 11:32:18;;;;;;;3.80;1.55;;;27.40;92.70;;;;;;5087423;28;20029;-79
2022/07/05 11:34:46;;;;;;;3.05;1.70;;;27.40;93.00;;;;;;5080095;28;20046;-80
2022/07/05 11:37:34;;;;;;;4.28;1.35;;;27.50;91.70;;;;;;5078333;28;20077;-78
2022/07/05 11:40:11;;;;;;;4.07;1.88;;;27.60;89.50;;;;;;5078288;28;20036;-77
2022/07/05 11:42:50;;;;;;;1.55;1.23;;;27.70;90.50;;;;;;5079612;28;20081;-79
2022/07/05 11:45:17;;;;;;;6.55;1.60;;;28.00;91.60;;;;;;5081850;28;20066;-79
2022/07/05 11:47:43;;;;;;;5.50;1.70;;;28.20;91.50;;;;;;5080815;28;20092;-78
2022/07/05 11:50:13;;;;;;;1.95;0.90;;;28.50;90.60;;;;;;5080084;28;20409;-79
2022/07/05 11:52:39;;;;;;;3.13;1.30;;;28.80;88.20;;;;;;5084878;28;20032;-79
2022/07/05 11:55:08;;;;;;;4.78;1.30;;;28.70;84.50;;;;;;5082239;28;20114;-78
2022/07/05 11:57:35;;;;;;;4.05;1.25;;;28.70;86.50;;;;;;5098037;28;20024;-79
2022/07/05 12:00:01;;;;;;;4.57;2.20;;;28.60;83.70;;;;;;5092846;28;20028;-78
2022/07/05 12:02:27;;;;;;;2.72;1.35;;;28.60;88.20;;;;;;5082413;28;20025;-78
2022/07/05 12:04:56;;;;;;;3.67;1.30;;;28.70;83.90;;;;;;5094894;28;20073;-79
2022/07/05 12:07:33;;;;;;;6.22;0.98;;;28.80;83.70;;;;;;5085906;28;20469;-79
2022/07/05 12:12:47;;;;;;;4.75;1.60;;;29.00;80.80;;;;;;5096073;28;20068;-80
2022/07/05 12:15:20;;;;;;;3.10;1.17;;;28.60;81.60;;;;;;5095687;28;20081;-77
2022/07/05 12:17:49;;;;;;;7.78;1.60;;;28.50;81.70;;;;;;5094296;28;20024;-78
2022/07/05 12:20:21;;;;;;;2.08;1.20;;;28.20;82.20;;;;;;5088078;28;20028;-79
2022/07/05 12:22:47;;;;;;;2.42;1.42;;;28.20;84.30;;;;;;5078956;28;20494;-77
2022/07/05 12:25:18;;;;;;;3.70;1.13;;;28.20;86.50;;;;;;5077732;28;20103;-80
2022/07/05 12:27:45;;;;;;;3.33;1.35;;;28.40;83.70;;;;;;5083587;28;20104;-79
2022/07/05 12:30:11;;;;;;;2.60;1.20;;;28.50;84.50;;;;;;5084545;28;20046;-81
2022/07/05 12:32:57;;;;;;;4.47;1.50;;;28.60;83.90;;;;;;5093266;28;20028;-80
2022/07/05 12:35:30;;;;;;;4.93;1.33;;;28.70;80.60;;;;;;5092716;28;20480;-79
2022/07/05 12:37:57;;;;;;;4.05;1.10;;;28.80;82.60;;;;;;5095022;28;20046;-77
2022/07/05 12:40:24;;;;;;;1.77;1.15;;;29.10;83.20;;;;;;5094109;28;20453;-76
2022/07/05 12:43:01;;;;;;;3.13;1.05;;;29.30;81.50;;;;;;5078379;28;20388;-80
2022/07/05 12:45:27;;;;;;;6.45;1.58;;;29.40;79.20;;;;;;5090739;28;20088;-79
2022/07/05 12:47:57;;;;;;;4.57;1.20;;;29.30;79.60;;;;;;5094787;28;20448;-78
2022/07/05 12:50:29;;;;;;;4.38;1.13;;;29.20;78.50;;;;;;5095180;28;20055;-79
2022/07/05 12:58:55;;;;;;;4.82;1.55;;;29.20;80.00;;;;;;5089789;28;20392;-80
2022/07/05 13:01:37;;;;;;;3.55;1.27;;;29.30;80.00;;;;;;5088004;28;20107;-79